Sibel J — 5IM270 — position and weather

sailwx.info

Track history (hours):
 
Tides and Currents Weather Stations Pressure Air Temp Water Temp Dewpoint Dewpoint Depression Visibility Wind Speed Wind Dir Waves Ship Positions

Sibel J

Last reported at 2014-Sep-21 06:24 UTC. Time now 2014-Sep-23 16:24 UTC.
Position N 41°09' E 029°04'.

Length 100 m; draft 4.6 m.

Type: Cargo ship. MMSI: 677017000.

Date/timePositionNaut miles runAvg speedWind from/ knotsBaromVisibWave heightAir tempDewpointWater temp
2014-Sep-21 06:24N 41°09' E 029°04'8 6.6
2014-Sep-21 05:07N 41°01' E 028°60'3 5.7
2014-Sep-21 04:31N 40°57' E 028°59'3 3.1
2014-Sep-21 03:29N 40°58' E 028°55'0 0.0
2014-Sep-21 02:04N 40°58' E 028°55'0 0.0
2014-Sep-21 01:28N 40°58' E 028°55'0 0.0
2014-Sep-21 00:10N 40°58' E 028°55'0 0.0
2014-Sep-20 23:16N 40°58' E 028°55'0 0.0
2014-Sep-20 22:04N 40°58' E 028°55'0 0.0
2014-Sep-20 21:28N 40°58' E 028°55'1 1.5
2014-Sep-20 20:33N 40°57' E 028°56'7 6.8
2014-Sep-20 19:33N 40°51' E 028°52'  
Track history (hours):
 
Tides and Currents Weather Stations Pressure Air Temp Water Temp Dewpoint Dewpoint Depression Visibility Wind Speed Wind Dir Waves Ship Positions

Sibel J

Last reported at 2014-Sep-21 06:24 UTC. Time now 2014-Sep-23 16:24 UTC.
Position N 41°09' E 029°04'.

Length 100 m; draft 4.6 m.

Type: Cargo ship. MMSI: 677017000.

Date/timePositionNaut miles runAvg speedWind from/ knotsBaromVisibWave heightAir tempDewpointWater temp
2014-Sep-21 06:24N 41°09' E 029°04'8 6.6
2014-Sep-21 05:07N 41°01' E 028°60'3 5.7
2014-Sep-21 04:31N 40°57' E 028°59'3 3.1
2014-Sep-21 03:29N 40°58' E 028°55'0 0.0
2014-Sep-21 02:04N 40°58' E 028°55'0 0.0
2014-Sep-21 01:28N 40°58' E 028°55'0 0.0
2014-Sep-21 00:10N 40°58' E 028°55'0 0.0
2014-Sep-20 23:16N 40°58' E 028°55'0 0.0
2014-Sep-20 22:04N 40°58' E 028°55'0 0.0
2014-Sep-20 21:28N 40°58' E 028°55'1 1.5
2014-Sep-20 20:33N 40°57' E 028°56'7 6.8
2014-Sep-20 19:33N 40°51' E 028°52'  

Dump ship's entire track history